Mid Labrador Coast - Hopedale and south: Past 24 Hour Conditions

 

Miscou Island

04:00 PM ADT 19 September 2014
This table is a summary of hourly weather conditions for the past 24 hours.
Date / Time
(ADT)
Wind(knots) Conditions Visibility(km) Pressure(kPa) Air tempC) Relative humidity(%) Dew pointC)
19 September 2014
16:00 WNW 13 gust 18 N/A N/A 102.4 11 36 -3
15:00 WNW 15 gust 22 N/A N/A 102.4 11 35 -4
14:00 WNW 14 gust 19 N/A N/A 102.3 11 37 -3
13:00 WNW 15 N/A N/A 102.3 10 43 -2
12:00 NW 13 gust 21 N/A N/A 102.3 9 45 -2
11:00 NW 14 gust 20 N/A N/A 102.2 9 56 1
10:00 NNW 20 gust 26 N/A N/A 102.2 8 60 1
9:00 NW 18 gust 27 N/A N/A 102.1 7 71 2
8:00 NW 16 gust 21 N/A N/A 102.0 6 69 1
7:00 W 11 gust 17 N/A N/A 101.9 5 66 -1
6:00 WNW 11 gust 19 N/A N/A 101.8 6 65 -1
5:00 WNW 14 gust 23 N/A N/A 101.7 6 62 -1
4:00 WNW 9 gust 15 N/A N/A 101.7 5 66 -1
3:00 WNW 10 gust 15 N/A N/A 101.6 6 66 0
2:00 WNW 15 N/A N/A 101.6 7 62 0
1:00 WNW 9 gust 17 N/A N/A 101.6 6 63 0
0:00 NW 14 N/A N/A 101.6 7 64 1
18 September 2014
23:00 WNW 14 gust 19 N/A N/A 101.6 7 53 -2
22:00 WNW 14 N/A N/A 101.6 8 54 -1
21:00 WNW 11 gust 17 N/A N/A 101.6 8 57 0
20:00 NW 17 gust 23 N/A N/A 101.5 9 56 1
19:00 WNW 8 N/A N/A 101.4 9 64 3
18:00 WNW 12 gust 19 N/A N/A 101.3 11 59 3
17:00 NW 9 N/A N/A 101.3 11 65 5
16:00 NW 10 N/A N/A 101.3 10 69 5
 
Map of Atlantic - Newfoundland marine weather areas Southwestern Grand Banks - 44138 Banquereau - 44139 Tail of the Bank - 44140 Nickerson Bank - 44251 Northeast Burgeo Bank - 44255 Blanc-Sablon Airport Cap Whittle Chevery Natashquan Airport Heath Point Miscou Island Grand Étang Ingonish Beach North Mountain St.Paul Island J.A. Douglas McCurdy Sydney Airport Charlottetown Airport East Point North Cape Argentia Bonavista Burgeo Cape Race Corner Brook Daniel's Harbour Englee Ferolle Point La Scie Port aux Basques Rocky Harbour Sagona Island St. Anthony Airport St. John's Int'l Airport St. Lawrence Stephenville Airport Twillingate Winterland Wreckhouse Cartwright Airport Mary's Harbour Grates Cove Pool's Island Marticot Island Long Pond Îles de la Madeleine Airport
Legend: buoyBuoy land stationLand Station